createdAt,value
2023-08-28T00:00:11.759Z,0.97
2023-08-28T00:03:21.385Z,0.80
2023-08-28T00:06:29.618Z,0.93
2023-08-28T00:09:38.149Z,0.80
2023-08-28T00:12:46.447Z,0.60
2023-08-28T00:15:54.609Z,4.23
2023-08-28T00:19:04.596Z,1.57
2023-08-28T00:22:12.845Z,0.67
2023-08-28T00:25:21.159Z,1.23
2023-08-28T00:28:29.344Z,1.23
2023-08-28T00:31:38.210Z,1.47
2023-08-28T00:34:48.262Z,1.47
2023-08-28T00:37:56.559Z,1.13
2023-08-28T00:41:05.360Z,0.80
2023-08-28T00:44:13.855Z,0.70
2023-08-28T00:47:22.462Z,3.33
2023-08-28T00:50:32.769Z,0.70
2023-08-28T00:53:41.200Z,0.93
2023-08-28T00:56:51.181Z,0.60
2023-08-28T00:59:59.844Z,0.67
2023-08-28T01:03:08.523Z,0.93
2023-08-28T01:06:30.712Z,0.60
2023-08-28T01:09:51.498Z,1.67
2023-08-28T01:13:08.556Z,1.10
2023-08-28T01:16:20.279Z,0.50
2023-08-28T01:19:35.027Z,1.60
2023-08-28T01:23:04.310Z,0.80
2023-08-28T01:26:15.270Z,1.97
2023-08-28T01:29:23.529Z,0.60
2023-08-28T01:32:31.753Z,0.53
2023-08-28T01:35:40.044Z,0.57
2023-08-28T01:38:56.330Z,0.70
2023-08-28T01:42:08.821Z,0.60
2023-08-28T01:45:17.873Z,0.50
2023-08-28T01:48:29.477Z,0.67
2023-08-28T01:51:37.699Z,0.50
2023-08-28T01:54:48.548Z,0.50
2023-08-28T01:57:58.633Z,0.67
2023-08-28T02:01:06.924Z,0.60
2023-08-28T02:04:15.210Z,0.60
2023-08-28T02:07:23.562Z,1.60
2023-08-28T02:10:31.735Z,1.40
2023-08-28T02:13:41.370Z,1.70
2023-08-28T02:16:49.728Z,0.60
2023-08-28T02:19:58.158Z,0.73
2023-08-28T02:23:09.733Z,0.93
2023-08-28T02:26:18.536Z,1.20
2023-08-28T02:29:28.136Z,0.90
2023-08-28T02:32:37.698Z,0.70
2023-08-28T02:35:46.620Z,0.87
2023-08-28T02:38:54.860Z,0.77
2023-08-28T02:42:03.360Z,1.23
2023-08-28T02:45:14.491Z,1.40
2023-08-28T02:48:22.745Z,1.37
2023-08-28T02:51:31.016Z,1.43
2023-08-28T02:54:39.316Z,1.87
2023-08-28T02:57:47.832Z,1.20
2023-08-28T03:00:58.579Z,1.20
2023-08-28T03:04:08.204Z,1.43
2023-08-28T03:07:16.461Z,1.60
2023-08-28T03:10:25.182Z,1.33
2023-08-28T03:13:34.368Z,1.53
2023-08-28T03:16:44.041Z,2.00
2023-08-28T03:19:52.237Z,2.23
2023-08-28T03:23:02.233Z,3.77
2023-08-28T03:26:11.110Z,2.73
2023-08-28T03:29:19.412Z,1.67
2023-08-28T03:32:29.262Z,1.60
2023-08-28T03:35:37.654Z,1.17
2023-08-28T03:38:46.530Z,1.97
2023-08-28T03:41:54.803Z,1.67
2023-08-28T03:45:03.332Z,2.57
2023-08-28T03:48:13.267Z,1.10
2023-08-28T03:51:21.717Z,1.20
2023-08-28T03:54:30.083Z,1.83
2023-08-28T03:57:39.810Z,2.93
2023-08-28T04:00:48.874Z,1.10
2023-08-28T04:03:58.528Z,1.17
2023-08-28T04:07:07.115Z,0.83
2023-08-28T04:10:15.566Z,0.93
2023-08-28T04:13:24.149Z,1.07
2023-08-28T04:16:32.520Z,1.03
2023-08-28T04:19:42.602Z,1.73
2023-08-28T04:22:50.973Z,1.30
2023-08-28T04:26:01.295Z,1.73
2023-08-28T04:29:11.310Z,1.50
2023-08-28T04:32:19.678Z,1.70
2023-08-28T04:35:29.175Z,0.90
2023-08-28T04:38:37.352Z,0.80
2023-08-28T04:41:45.855Z,1.23
2023-08-28T04:44:54.109Z,0.90
2023-08-28T04:48:02.463Z,1.33
2023-08-28T04:51:12.095Z,1.93
2023-08-28T04:54:20.345Z,1.00
2023-08-28T04:57:28.662Z,4.43
2023-08-28T05:00:37.090Z,1.20
2023-08-28T05:03:45.662Z,3.13
2023-08-28T05:06:55.233Z,1.37
2023-08-28T05:10:03.468Z,1.10
2023-08-28T05:13:11.751Z,1.00
2023-08-28T05:16:20.113Z,1.17
2023-08-28T05:19:28.629Z,1.37
2023-08-28T05:22:38.206Z,2.37
2023-08-28T05:25:46.564Z,1.70
2023-08-28T05:28:54.742Z,1.93
2023-08-28T05:32:03.081Z,2.53
2023-08-28T05:35:11.394Z,1.50
2023-08-28T05:38:22.339Z,1.73
2023-08-28T05:41:30.600Z,4.20
2023-08-28T05:44:38.788Z,3.00
2023-08-28T05:47:47.149Z,3.10
2023-08-28T05:50:55.321Z,1.37
2023-08-28T05:54:05.198Z,2.77
2023-08-28T05:57:13.805Z,1.40
2023-08-28T06:00:22.188Z,1.43
2023-08-28T06:03:30.882Z,1.80
2023-08-28T06:06:39.970Z,1.03
2023-08-28T06:09:50.329Z,1.00
2023-08-28T06:12:59.908Z,2.30
2023-08-28T06:16:09.110Z,1.50
2023-08-28T06:19:17.688Z,1.53
2023-08-28T06:22:25.986Z,1.50
2023-08-28T06:25:35.555Z,1.40
2023-08-28T06:28:44.155Z,2.83
2023-08-28T06:31:52.991Z,1.60
2023-08-28T06:35:01.944Z,2.27
2023-08-28T06:38:10.263Z,2.67
2023-08-28T06:41:19.945Z,1.93
2023-08-28T06:44:28.401Z,1.30
2023-08-28T06:47:36.623Z,2.00
2023-08-28T06:50:45.017Z,1.47
2023-08-28T06:53:53.933Z,1.40
2023-08-28T06:57:04.302Z,1.27
2023-08-28T07:00:14.862Z,1.53
2023-08-28T07:03:23.404Z,4.50
2023-08-28T07:06:31.815Z,2.40
2023-08-28T07:09:41.492Z,3.23
2023-08-28T07:12:51.360Z,1.03
2023-08-28T07:16:02.834Z,1.30
2023-08-28T07:19:11.227Z,1.27
2023-08-28T07:22:19.530Z,3.10
2023-08-28T07:25:29.364Z,1.63
2023-08-28T07:28:38.990Z,1.10
2023-08-28T07:31:47.184Z,1.50
2023-08-28T07:34:57.040Z,1.30
2023-08-28T07:38:07.676Z,7.03
2023-08-28T07:41:17.936Z,1.50
2023-08-28T07:44:27.704Z,1.47
2023-08-28T07:47:36.016Z,2.17
2023-08-28T07:50:46.423Z,1.47
2023-08-28T07:53:56.677Z,1.53
2023-08-28T07:57:06.365Z,1.50
2023-08-28T08:00:21.709Z,2.00
2023-08-28T08:03:30.091Z,1.80
2023-08-28T08:06:38.679Z,1.60
2023-08-28T08:09:47.026Z,1.03
2023-08-28T08:12:55.207Z,1.10
2023-08-28T08:16:05.784Z,1.80
2023-08-28T08:19:16.812Z,2.27
2023-08-28T08:22:25.883Z,0.67
2023-08-28T08:25:35.031Z,1.17
2023-08-28T08:28:43.360Z,0.73
2023-08-28T08:31:53.162Z,1.57
2023-08-28T08:35:01.393Z,0.87
2023-08-28T08:38:09.560Z,1.13
2023-08-28T08:41:17.849Z,3.20
2023-08-28T08:44:26.137Z,0.70
2023-08-28T08:47:37.969Z,1.60
2023-08-28T08:50:49.756Z,0.80
2023-08-28T08:54:07.499Z,0.97
2023-08-28T08:57:27.737Z,0.90
2023-08-28T09:00:39.733Z,1.43
2023-08-28T09:03:51.522Z,0.90
2023-08-28T09:07:01.870Z,1.10
2023-08-28T09:10:11.018Z,0.73
2023-08-28T09:13:19.254Z,1.23
2023-08-28T09:16:27.636Z,0.90
2023-08-28T09:19:38.348Z,0.80
2023-08-28T09:22:53.492Z,1.23
2023-08-28T09:26:05.208Z,0.90
2023-08-28T09:29:13.501Z,0.80
2023-08-28T09:32:29.768Z,1.13
2023-08-28T09:35:42.999Z,0.70
2023-08-28T09:38:51.284Z,0.73
2023-08-28T09:41:59.893Z,0.80
2023-08-28T09:45:11.178Z,0.40
2023-08-28T09:48:19.906Z,0.70
2023-08-28T09:51:42.075Z,1.27
2023-08-28T09:55:04.913Z,0.50
2023-08-28T09:58:13.846Z,0.50
2023-08-28T10:01:22.186Z,0.50
2023-08-28T10:04:31.818Z,0.50
2023-08-28T10:07:43.446Z,0.50
2023-08-28T10:10:54.204Z,0.23
2023-08-28T10:14:05.205Z,0.70
2023-08-28T10:17:17.048Z,0.30
2023-08-28T10:20:27.861Z,0.30
2023-08-28T10:23:37.912Z,0.20
2023-08-28T10:26:48.211Z,0.27
2023-08-28T10:29:57.798Z,0.20
2023-08-28T10:33:08.881Z,0.40
2023-08-28T10:36:40.943Z,0.83
2023-08-28T10:39:51.920Z,0.20
2023-08-28T10:43:00.986Z,0.53
2023-08-28T10:46:10.584Z,0.10
2023-08-28T10:49:18.902Z,0.20
2023-08-28T10:52:28.341Z,0.30
2023-08-28T10:55:38.151Z,0.20
2023-08-28T10:58:46.375Z,0.23
2023-08-28T11:01:58.057Z,0.10
2023-08-28T11:05:16.433Z,0.20
2023-08-28T11:08:24.761Z,0.23
2023-08-28T11:11:34.427Z,0.00
2023-08-28T11:14:53.510Z,0.00
2023-08-28T11:18:28.653Z,1.07
2023-08-28T11:21:43.319Z,0.00
2023-08-28T11:24:54.924Z,0.50
2023-08-28T11:28:05.402Z,0.17
2023-08-28T11:31:14.905Z,0.10
2023-08-28T11:34:23.131Z,0.20
2023-08-28T11:37:32.724Z,0.20
2023-08-28T11:40:41.848Z,0.30
2023-08-28T11:43:51.596Z,0.20
2023-08-28T11:47:00.713Z,0.17
2023-08-28T11:50:09.919Z,0.30
2023-08-28T11:53:29.130Z,0.40
2023-08-28T11:56:37.375Z,0.30
2023-08-28T11:59:50.645Z,0.30
2023-08-28T12:02:58.923Z,0.23
2023-08-28T12:06:10.701Z,0.73
2023-08-28T12:09:19.661Z,0.43
2023-08-28T12:12:29.004Z,0.20
2023-08-28T12:15:38.514Z,0.30
2023-08-28T12:18:48.778Z,0.20
2023-08-28T12:22:06.562Z,0.73
2023-08-28T12:25:15.277Z,0.40
2023-08-28T12:28:23.545Z,1.53
2023-08-28T12:31:35.754Z,0.30
2023-08-28T12:34:44.225Z,0.37
2023-08-28T12:37:53.427Z,0.90
2023-08-28T12:41:01.598Z,0.20
2023-08-28T12:44:10.228Z,1.90
2023-08-28T12:47:19.851Z,0.40
2023-08-28T12:50:28.301Z,0.67
2023-08-28T12:53:36.573Z,0.53
2023-08-28T12:56:44.725Z,0.50
2023-08-28T12:59:52.895Z,0.40
2023-08-28T13:03:03.169Z,0.40
2023-08-28T13:06:11.855Z,0.60
2023-08-28T13:09:22.024Z,0.40
2023-08-28T13:12:30.302Z,0.20
2023-08-28T13:15:38.595Z,0.70
2023-08-28T13:18:48.092Z,0.30
2023-08-28T13:21:59.154Z,1.90
2023-08-28T13:25:08.298Z,0.43
2023-08-28T13:28:17.393Z,0.83
2023-08-28T13:31:25.605Z,0.40
2023-08-28T13:34:35.203Z,0.40
2023-08-28T13:37:43.387Z,0.50
2023-08-28T13:40:51.643Z,0.80
2023-08-28T13:43:59.842Z,0.50
2023-08-28T13:47:08.402Z,0.67
2023-08-28T13:50:18.672Z,0.40
2023-08-28T13:53:27.823Z,0.50
2023-08-28T13:56:36.459Z,0.73
2023-08-28T13:59:47.047Z,3.53
2023-08-28T14:02:58.112Z,7.20
2023-08-28T14:06:08.271Z,2.27
2023-08-28T14:09:16.588Z,1.60
2023-08-28T14:12:25.222Z,1.30
2023-08-28T14:15:33.878Z,2.33
2023-08-28T14:18:42.241Z,1.13
2023-08-28T14:21:53.308Z,0.60
2023-08-28T14:25:01.664Z,2.53
2023-08-28T14:28:19.983Z,1.30
2023-08-28T14:31:31.705Z,0.60
2023-08-28T14:34:40.123Z,0.40
2023-08-28T14:37:49.666Z,2.03
2023-08-28T14:41:01.002Z,1.00
2023-08-28T14:44:09.367Z,0.70
2023-08-28T14:47:17.654Z,0.80
2023-08-28T14:50:25.920Z,1.70
2023-08-28T14:53:35.629Z,3.20
2023-08-28T14:56:44.256Z,1.83
2023-08-28T14:59:54.772Z,2.50
2023-08-28T15:03:03.696Z,1.60
2023-08-28T15:06:12.660Z,1.63
2023-08-28T15:09:23.306Z,2.23
2023-08-28T15:12:31.644Z,0.80
2023-08-28T15:15:41.941Z,0.90
2023-08-28T15:18:50.365Z,2.77
2023-08-28T15:21:58.652Z,1.33
2023-08-28T15:25:11.806Z,0.93
2023-08-28T15:28:20.433Z,1.27
2023-08-28T15:31:28.723Z,0.70
2023-08-28T15:34:36.977Z,1.00
2023-08-28T15:37:45.714Z,0.70
2023-08-28T15:40:55.564Z,1.40
2023-08-28T15:44:04.518Z,1.33
2023-08-28T15:47:12.995Z,1.23
2023-08-28T15:50:21.432Z,0.83
2023-08-28T15:53:29.690Z,0.30
2023-08-28T15:56:39.961Z,1.00
2023-08-28T15:59:48.449Z,0.30
2023-08-28T16:02:57.465Z,0.40
2023-08-28T16:06:10.300Z,0.40
2023-08-28T16:09:19.469Z,0.53
2023-08-28T16:12:29.158Z,1.23
2023-08-28T16:15:37.654Z,0.50
2023-08-28T16:18:49.250Z,1.03
2023-08-28T16:21:57.607Z,1.23
2023-08-28T16:25:06.994Z,0.43
2023-08-28T16:28:16.849Z,0.50
2023-08-28T16:31:25.040Z,0.70
2023-08-28T16:34:33.285Z,0.40
2023-08-28T16:37:42.367Z,1.17
2023-08-28T16:40:50.872Z,0.40
2023-08-28T16:44:00.952Z,0.33
2023-08-28T16:47:09.319Z,1.27
2023-08-28T16:50:17.727Z,0.40
2023-08-28T16:53:26.049Z,0.37
2023-08-28T16:56:34.430Z,0.40
2023-08-28T16:59:45.087Z,1.13
2023-08-28T17:02:56.335Z,0.30
2023-08-28T17:06:05.035Z,0.83
2023-08-28T17:09:13.347Z,0.30
2023-08-28T17:12:21.802Z,0.83
2023-08-28T17:15:31.764Z,0.37
2023-08-28T17:18:44.199Z,0.43
2023-08-28T17:21:52.867Z,0.30
2023-08-28T17:25:01.379Z,0.30
2023-08-28T17:28:12.921Z,0.13
2023-08-28T17:31:24.613Z,2.00
2023-08-28T17:34:33.398Z,0.17
2023-08-28T17:37:42.461Z,0.30
2023-08-28T17:40:51.817Z,0.30
2023-08-28T17:44:00.560Z,0.60
2023-08-28T17:47:11.720Z,0.60
2023-08-28T17:50:20.299Z,1.23
2023-08-28T17:53:29.104Z,1.00
2023-08-28T17:56:42.983Z,1.63
2023-08-28T17:59:53.892Z,1.17
2023-08-28T18:03:08.698Z,1.70
2023-08-28T18:06:27.189Z,1.40
2023-08-28T18:09:35.722Z,2.07
2023-08-28T18:12:44.174Z,2.37
2023-08-28T18:15:53.075Z,2.03
2023-08-28T18:19:02.821Z,2.20
2023-08-28T18:22:11.255Z,2.80
2023-08-28T18:25:20.035Z,2.87
2023-08-28T18:28:28.295Z,3.13
2023-08-28T18:31:36.680Z,2.80
2023-08-28T18:34:48.564Z,3.53
2023-08-28T18:37:59.046Z,3.43
2023-08-28T18:41:07.634Z,3.97
2023-08-28T18:44:16.093Z,4.10
2023-08-28T18:47:24.622Z,3.47
2023-08-28T18:50:34.475Z,4.17
2023-08-28T18:53:42.875Z,4.10
2023-08-28T18:56:51.130Z,4.30
2023-08-28T18:59:59.416Z,6.63
2023-08-28T19:03:07.637Z,4.20
2023-08-28T19:06:17.390Z,4.23
2023-08-28T19:09:25.883Z,3.10
2023-08-28T19:12:34.228Z,3.40
2023-08-28T19:15:43.045Z,3.67
2023-08-28T19:18:51.381Z,3.57
2023-08-28T19:22:01.121Z,3.83
2023-08-28T19:25:10.781Z,4.20
2023-08-28T19:28:19.193Z,3.90
2023-08-28T19:31:29.114Z,2.30
2023-08-28T19:34:37.745Z,3.10
2023-08-28T19:37:49.380Z,4.90
2023-08-28T19:40:57.935Z,2.67
2023-08-28T19:44:06.413Z,2.30
2023-08-28T19:47:14.928Z,4.03
2023-08-28T19:50:23.230Z,2.40
2023-08-28T19:53:33.946Z,3.17
2023-08-28T19:56:43.404Z,2.53
2023-08-28T19:59:51.892Z,1.50
2023-08-28T20:03:00.757Z,2.03
2023-08-28T20:06:09.278Z,1.70
2023-08-28T20:09:18.965Z,1.43
2023-08-28T20:12:27.535Z,1.53
2023-08-28T20:15:36.094Z,1.67
2023-08-28T20:18:44.621Z,1.17
2023-08-28T20:21:53.279Z,0.83
2023-08-28T20:25:03.315Z,1.53
2023-08-28T20:28:11.802Z,1.23
2023-08-28T20:31:20.321Z,1.10
2023-08-28T20:34:29.181Z,1.50
2023-08-28T20:37:38.381Z,1.23
2023-08-28T20:40:51.272Z,1.10
2023-08-28T20:43:59.923Z,1.30
2023-08-28T20:47:09.593Z,1.30
2023-08-28T20:50:18.119Z,1.20
2023-08-28T20:53:26.869Z,1.53
2023-08-28T20:56:36.613Z,1.93
2023-08-28T20:59:46.326Z,1.60
2023-08-28T21:02:54.676Z,1.10
2023-08-28T21:06:04.868Z,1.30
2023-08-28T21:09:13.182Z,1.30
2023-08-28T21:12:22.915Z,1.00
2023-08-28T21:15:31.551Z,1.27
2023-08-28T21:18:39.884Z,1.20
2023-08-28T21:21:49.655Z,1.97
2023-08-28T21:24:57.985Z,2.07
2023-08-28T21:28:08.125Z,0.87
2023-08-28T21:31:16.643Z,0.80
2023-08-28T21:34:25.004Z,0.80
2023-08-28T21:37:34.703Z,0.80
2023-08-28T21:40:42.979Z,1.23
2023-08-28T21:43:52.611Z,0.40
2023-08-28T21:47:01.035Z,0.70
2023-08-28T21:50:28.070Z,0.70
2023-08-28T21:53:55.100Z,0.60
2023-08-28T21:57:21.748Z,0.70
2023-08-28T22:00:50.465Z,0.50
2023-08-28T22:04:17.210Z,0.50
2023-08-28T22:07:45.236Z,0.60
2023-08-28T22:11:02.940Z,0.50
2023-08-28T22:14:28.420Z,0.50
2023-08-28T22:17:38.194Z,0.80
2023-08-28T22:20:46.548Z,0.60
2023-08-28T22:23:54.821Z,0.90
2023-08-28T22:27:03.040Z,1.37
2023-08-28T22:30:12.753Z,0.63
2023-08-28T22:33:22.443Z,0.80
2023-08-28T22:36:30.612Z,0.60
2023-08-28T22:39:38.748Z,0.77
2023-08-28T22:42:47.064Z,0.60
2023-08-28T22:45:55.278Z,0.83
2023-08-28T22:49:05.904Z,1.97
2023-08-28T22:52:14.080Z,0.70
2023-08-28T22:55:22.233Z,0.43
2023-08-28T22:58:30.470Z,0.60
2023-08-28T23:01:38.816Z,0.60
2023-08-28T23:04:48.377Z,0.60
2023-08-28T23:07:57.494Z,0.50
2023-08-28T23:11:05.818Z,0.67
2023-08-28T23:14:14.002Z,0.33
2023-08-28T23:17:22.362Z,0.40
2023-08-28T23:20:32.280Z,0.60
2023-08-28T23:23:42.467Z,0.40
2023-08-28T23:26:50.722Z,0.40
2023-08-28T23:29:58.907Z,0.80
2023-08-28T23:33:07.348Z,0.40
2023-08-28T23:36:16.927Z,0.20
2023-08-28T23:39:26.977Z,0.40
2023-08-28T23:42:35.191Z,0.30
2023-08-28T23:45:43.556Z,0.23
2023-08-28T23:48:51.835Z,0.63
2023-08-28T23:52:01.545Z,0.30
2023-08-28T23:55:10.348Z,0.33
2023-08-28T23:58:18.494Z,0.30
